Time;durP1;ratioP1;P1;durP2;ratioP2;P2;SDS_P1;SDS_P2;PMS_P1;PMS_P2;Temp;Humidity;BMP_temperature;BMP_pressure;BME280_temperature;BME280_humidity;BME280_pressure;Samples;Min_cycle;Max_cycle;Signal;HPM_P1;HPM_P2
2023/06/21 00:01:53;;;;;;;4.70;4.27;;;;;;;25.24;58.45;100849.44;4977584;28;99260;-83
2023/06/21 00:04:18;;;;;;;4.63;4.20;;;;;;;25.19;58.39;100827.94;4989537;28;97866;-83
2023/06/21 00:06:50;;;;;;;4.43;4.13;;;;;;;25.24;58.85;100828.97;4959766;28;102420;-83
2023/06/21 00:09:16;;;;;;;4.70;4.30;;;;;;;25.24;58.38;100834.59;4988560;28;97200;-83
2023/06/21 00:11:41;;;;;;;4.83;3.60;;;;;;;25.20;58.49;100828.69;4969377;28;99702;-83
2023/06/21 00:14:07;;;;;;;4.70;4.30;;;;;;;25.17;58.71;100824.97;4974389;28;100700;-84
2023/06/21 00:16:32;;;;;;;4.83;4.43;;;;;;;25.17;58.57;100830.59;4971641;28;97511;-84
2023/06/21 00:18:58;;;;;;;4.60;4.17;;;;;;;25.15;58.59;100816.38;4976992;28;97579;-83
2023/06/21 00:21:23;;;;;;;4.17;3.87;;;;;;;25.13;58.84;100824.66;4974762;28;99333;-83
2023/06/21 00:23:48;;;;;;;4.63;4.00;;;;;;;25.08;58.86;100816.50;4976461;28;100782;-82
2023/06/21 00:26:14;;;;;;;4.27;3.97;;;;;;;25.07;58.86;100829.84;4989367;28;97200;-83
2023/06/21 00:28:39;;;;;;;4.50;4.10;;;;;;;24.99;58.93;100853.81;4988737;28;97575;-83
2023/06/21 00:31:08;;;;;;;4.90;4.30;;;;;;;25.04;58.94;100827.44;4989866;28;98745;-84
2023/06/21 00:33:34;;;;;;;4.40;4.03;;;;;;;25.03;59.20;100832.34;4971965;28;99339;-83
2023/06/21 00:35:59;;;;;;;4.80;4.40;;;;;;;25.05;59.16;100821.22;4988003;28;97077;-83
2023/06/21 00:38:25;;;;;;;4.47;4.10;;;;;;;25.03;59.20;100820.34;4988750;28;96672;-83
2023/06/21 00:40:52;;;;;;;4.93;4.57;;;;;;;24.99;59.14;100814.41;4985444;28;100175;-83
2023/06/21 00:43:18;;;;;;;4.83;4.43;;;;;;;24.96;59.45;100821.22;4988988;28;99366;-84
2023/06/21 00:45:48;;;;;;;4.40;4.10;;;;;;;24.92;59.54;100809.66;4973070;28;97113;-83
2023/06/21 00:48:13;;;;;;;5.20;4.73;;;;;;;24.93;59.52;100822.38;4974392;28;97367;-84
2023/06/21 00:50:39;;;;;;;5.10;4.70;;;;;;;24.91;59.70;100806.09;4975234;28;98801;-84
2023/06/21 00:53:04;;;;;;;4.40;4.10;;;;;;;24.88;59.61;100801.63;4987904;28;98617;-84
2023/06/21 00:55:31;;;;;;;5.90;4.53;;;;;;;24.86;59.70;100790.22;4992548;28;97058;-83
2023/06/21 00:57:57;;;;;;;5.10;4.70;;;;;;;24.87;59.88;100807.88;4986921;28;96964;-83
2023/06/21 01:00:24;;;;;;;5.23;4.80;;;;;;;24.84;59.92;100801.34;4992561;28;98016;-84
2023/06/21 01:02:52;;;;;;;4.87;4.40;;;;;;;24.88;59.91;100807.28;4988329;28;97765;-81
2023/06/21 01:05:30;;;;;;;5.03;4.63;;;;;;;24.84;61.02;100792.91;4987151;28;97021;-83
2023/06/21 01:08:34;;;;;;;5.93;5.33;;;;;;;24.85;61.02;100796.47;4989662;28;96781;-82
2023/06/21 01:11:17;;;;;;;4.90;4.50;;;;;;;24.84;60.01;100795.72;4960736;28;100056;-83
2023/06/21 01:13:50;;;;;;;5.00;4.60;;;;;;;24.80;60.58;100795.41;4975117;28;99302;-83
2023/06/21 01:16:18;;;;;;;5.67;5.10;;;;;;;24.82;60.04;100809.63;4987185;28;96803;-84
2023/06/21 01:18:47;;;;;;;4.47;4.17;;;;;;;24.79;60.24;100816.44;4989572;28;97145;-84
2023/06/21 01:21:19;;;;;;;4.83;4.53;;;;;;;24.80;60.50;100834.81;4989348;28;98008;-84
2023/06/21 01:24:09;;;;;;;4.60;4.20;;;;;;;24.77;60.92;100824.72;4991991;28;97862;-83
2023/06/21 01:26:41;;;;;;;5.13;4.63;;;;;;;24.75;60.55;100835.81;4987108;28;97404;-83
2023/06/21 01:29:20;;;;;;;5.33;4.90;;;;;;;24.75;61.10;100843.53;4983280;28;97278;-83
2023/06/21 01:31:47;;;;;;;5.40;4.90;;;;;;;24.73;60.38;100838.47;4986994;28;98793;-83
2023/06/21 01:34:13;;;;;;;5.13;4.70;;;;;;;24.71;60.33;100852.38;4984819;28;97389;-83
2023/06/21 01:36:39;;;;;;;4.83;4.43;;;;;;;24.69;60.30;100835.34;4977302;28;97114;-83
2023/06/21 01:39:09;;;;;;;4.90;4.60;;;;;;;24.69;60.44;100849.41;4993258;28;97171;-84
2023/06/21 01:41:35;;;;;;;5.63;4.50;;;;;;;24.67;60.29;100856.94;4992622;28;96781;-84
2023/06/21 01:44:03;;;;;;;5.90;5.40;;;;;;;24.68;60.53;100869.69;4990242;28;100689;-83
2023/06/21 01:46:28;;;;;;;5.07;4.67;;;;;;;24.63;60.60;100885.53;4992249;28;97413;-83
2023/06/21 01:48:55;;;;;;;7.90;5.67;;;;;;;24.64;60.65;100875.75;4975857;28;97154;-82
2023/06/21 01:51:22;;;;;;;4.97;4.57;;;;;;;24.61;60.67;100870.56;4989397;28;97825;-82
2023/06/21 01:53:48;;;;;;;5.90;5.40;;;;;;;24.62;60.70;100886.84;4978671;28;100643;-82
2023/06/21 01:56:16;;;;;;;5.50;5.00;;;;;;;24.61;60.60;100882.56;4972887;28;97516;-83
2023/06/21 01:58:42;;;;;;;6.50;5.90;;;;;;;24.60;60.58;100914.81;4981690;28;97387;-83
2023/06/21 02:01:09;;;;;;;5.40;4.93;;;;;;;24.58;60.57;100884.47;4992751;28;99031;-84
2023/06/21 02:03:39;;;;;;;6.60;6.00;;;;;;;24.44;60.87;100888.97;4992910;28;97371;-83
2023/06/21 02:06:06;;;;;;;5.87;5.00;;;;;;;24.53;60.81;100893.16;4976660;28;96824;-82
2023/06/21 02:08:32;;;;;;;5.43;4.93;;;;;;;24.48;60.75;100886.50;4994421;28;97683;-82
2023/06/21 02:11:00;;;;;;;5.50;5.10;;;;;;;24.47;60.86;100876.56;4967055;28;100074;-82
2023/06/21 02:13:26;;;;;;;5.70;5.30;;;;;;;24.41;60.87;100898.59;4971833;28;99469;-82
2023/06/21 02:15:52;;;;;;;5.60;5.17;;;;;;;24.40;60.90;100890.72;4977293;28;96911;-82
2023/06/21 02:18:21;;;;;;;6.50;6.00;;;;;;;24.37;60.97;100875.03;4990156;28;97036;-82
2023/06/21 02:20:47;;;;;;;6.40;5.37;;;;;;;24.35;60.81;100912.16;4966726;28;99697;-83
2023/06/21 02:23:12;;;;;;;5.83;5.37;;;;;;;24.31;60.87;100911.13;4991797;28;97242;-83
2023/06/21 02:25:38;;;;;;;4.90;4.50;;;;;;;24.26;61.00;100898.81;4974468;28;97302;-83
2023/06/21 02:28:04;;;;;;;6.10;5.60;;;;;;;24.21;61.08;100907.50;4987157;28;97273;-83
2023/06/21 02:30:29;;;;;;;6.73;6.13;;;;;;;24.22;61.12;100911.81;4978716;28;99114;-83
2023/06/21 02:32:55;;;;;;;6.67;6.07;;;;;;;24.21;61.22;100930.72;4990689;28;97505;-80
2023/06/21 02:35:20;;;;;;;6.73;6.20;;;;;;;24.23;61.24;100936.53;4990281;28;96978;-83
2023/06/21 02:37:47;;;;;;;6.07;5.57;;;;;;;24.14;61.14;100958.94;4981063;28;97343;-82
2023/06/21 02:40:13;;;;;;;6.40;5.80;;;;;;;24.22;61.32;100940.66;4991579;28;97406;-83
2023/06/21 02:42:39;;;;;;;5.90;5.50;;;;;;;24.26;61.48;100934.63;4978204;28;99066;-82
2023/06/21 02:45:06;;;;;;;6.93;6.33;;;;;;;24.26;61.39;100940.25;4989038;28;97095;-83
2023/06/21 02:47:32;;;;;;;6.50;6.00;;;;;;;24.23;61.30;100939.34;4991970;28;97340;-83
2023/06/21 02:49:57;;;;;;;6.37;5.80;;;;;;;24.23;61.34;100947.03;4983966;28;97648;-81
2023/06/21 02:52:22;;;;;;;6.97;6.37;;;;;;;24.20;61.54;100948.91;4989480;28;97564;-82
2023/06/21 02:54:48;;;;;;;9.20;7.20;;;;;;;24.17;61.61;100957.78;4991001;28;96712;-82
2023/06/21 02:57:13;;;;;;;5.87;5.40;;;;;;;24.16;61.61;100970.34;4990025;28;96904;-82
2023/06/21 02:59:38;;;;;;;5.57;5.07;;;;;;;24.16;61.56;100978.78;4983451;28;97735;-82
2023/06/21 03:02:04;;;;;;;6.03;5.57;;;;;;;24.12;61.62;100967.97;4984396;28;97108;-81
2023/06/21 03:04:30;;;;;;;8.03;6.27;;;;;;;24.11;61.84;100966.47;4993517;28;97643;-81
2023/06/21 03:06:56;;;;;;;8.53;6.90;;;;;;;24.11;61.83;100977.72;4989072;28;96718;-80
2023/06/21 03:09:23;;;;;;;6.57;5.97;;;;;;;24.08;61.61;100992.94;4959851;28;104574;-81
2023/06/21 03:11:48;;;;;;;7.17;6.57;;;;;;;24.11;61.70;100955.25;4985015;28;99330;-82
2023/06/21 03:14:14;;;;;;;7.33;6.73;;;;;;;24.09;61.93;100957.13;4969520;28;97079;-82
2023/06/21 03:16:40;;;;;;;8.33;7.57;;;;;;;24.09;62.00;100962.75;4986680;28;97124;-82
2023/06/21 03:19:05;;;;;;;7.60;7.00;;;;;;;24.08;61.79;100969.69;4971919;28;98964;-83
2023/06/21 03:21:31;;;;;;;8.50;7.43;;;;;;;24.06;61.97;100975.91;4987385;28;97956;-81
2023/06/21 03:23:56;;;;;;;9.17;8.37;;;;;;;24.06;61.87;100975.16;4984666;28;97488;-82
2023/06/21 03:26:21;;;;;;;9.40;8.60;;;;;;;24.07;62.07;100979.47;4986057;28;98398;-82
2023/06/21 03:28:47;;;;;;;8.60;7.90;;;;;;;24.08;62.04;100973.25;4988648;28;99001;-82
2023/06/21 03:31:12;;;;;;;9.40;8.53;;;;;;;24.05;62.07;100976.50;4983220;28;98885;-82
2023/06/21 03:33:37;;;;;;;9.43;8.53;;;;;;;24.06;62.02;100980.78;4988845;28;97173;-82
2023/06/21 03:36:03;;;;;;;9.30;8.47;;;;;;;24.06;62.14;100969.53;4986001;28;97352;-82
2023/06/21 03:38:29;;;;;;;10.80;9.80;;;;;;;24.08;62.25;100976.06;4986695;28;98049;-81
2023/06/21 03:40:55;;;;;;;9.97;9.07;;;;;;;24.08;62.21;100983.75;4971909;28;100541;-82
2023/06/21 03:43:20;;;;;;;10.13;9.30;;;;;;;24.10;62.02;100987.47;4991669;28;97140;-81
2023/06/21 03:45:45;;;;;;;9.50;8.70;;;;;;;24.12;62.32;101001.69;4971071;28;96899;-81
2023/06/21 03:48:11;;;;;;;9.40;8.70;;;;;;;24.13;62.30;100996.81;4986851;28;98257;-83
2023/06/21 03:50:36;;;;;;;10.03;8.87;;;;;;;24.15;62.21;101008.97;4986111;28;102730;-83
2023/06/21 03:53:03;;;;;;;9.90;9.00;;;;;;;24.15;62.31;101011.78;4972524;28;97111;-81
2023/06/21 03:55:28;;;;;;;10.23;9.23;;;;;;;24.17;62.06;101064.63;4985484;28;97284;-82
2023/06/21 03:57:54;;;;;;;9.73;8.93;;;;;;;24.12;62.30;101051.56;4983269;28;97834;-82
2023/06/21 04:00:19;;;;;;;9.93;8.93;;;;;;;24.17;62.30;101031.63;4971125;28;100672;-81
2023/06/21 04:02:45;;;;;;;9.43;8.53;;;;;;;24.18;62.26;101023.97;4988008;28;96985;-82
2023/06/21 04:05:10;;;;;;;9.23;8.33;;;;;;;24.16;62.32;101032.94;4975439;28;96939;-82
2023/06/21 04:07:37;;;;;;;9.73;8.93;;;;;;;24.19;62.31;101034.63;4988602;28;96886;-82
2023/06/21 04:10:03;;;;;;;9.07;8.27;;;;;;;24.19;62.10;101042.31;4985153;28;97683;-82
2023/06/21 04:12:29;;;;;;;8.10;7.40;;;;;;;24.22;62.53;101035.53;4989013;28;96800;-82
2023/06/21 04:14:54;;;;;;;9.43;7.97;;;;;;;24.22;62.34;101043.97;4972827;28;97223;-81
2023/06/21 04:17:20;;;;;;;8.70;7.90;;;;;;;24.20;62.41;101057.88;4990403;28;97393;-81
2023/06/21 04:19:45;;;;;;;8.23;7.30;;;;;;;24.21;62.31;101060.09;4986723;28;98242;-82
2023/06/21 04:22:11;;;;;;;8.90;8.10;;;;;;;24.24;62.36;101063.81;4987292;28;97345;-82
2023/06/21 04:24:36;;;;;;;10.37;8.57;;;;;;;24.21;62.27;101062.91;4984436;28;97718;-81
2023/06/21 04:27:02;;;;;;;8.07;7.30;;;;;;;24.24;62.56;101066.63;4973295;28;99548;-81
2023/06/21 04:29:29;;;;;;;8.33;7.53;;;;;;;24.24;62.35;101055.38;4986611;28;98059;-81
2023/06/21 04:31:55;;;;;;;7.63;7.03;;;;;;;24.26;62.29;101063.97;4988349;28;97055;-81
2023/06/21 04:34:21;;;;;;;8.87;7.63;;;;;;;24.22;62.34;101055.22;4975840;28;97360;-82
2023/06/21 04:36:47;;;;;;;8.13;7.43;;;;;;;24.18;62.45;101066.84;4972676;28;99349;-82
2023/06/21 04:39:17;;;;;;;7.43;6.83;;;;;;;24.19;62.37;101076.03;4989129;28;101102;-81
2023/06/21 04:41:42;;;;;;;7.93;7.27;;;;;;;24.14;62.64;101072.16;4985232;28;97074;-82
2023/06/21 04:44:08;;;;;;;7.50;6.80;;;;;;;24.15;62.40;101093.34;4972686;28;97432;-82
2023/06/21 04:46:35;;;;;;;7.77;7.10;;;;;;;24.17;62.53;101093.50;4983661;28;99247;-81
2023/06/21 04:49:04;;;;;;;8.40;7.17;;;;;;;24.17;62.55;101079.44;4962075;28;99653;-81
2023/06/21 04:51:30;;;;;;;8.03;7.33;;;;;;;24.19;62.59;101102.09;4986264;28;97011;-81
2023/06/21 04:53:58;;;;;;;7.03;6.53;;;;;;;24.21;62.37;101104.31;4991234;28;97314;-81
2023/06/21 04:56:27;;;;;;;8.03;7.33;;;;;;;24.19;62.67;101118.97;4972319;28;100881;-82
2023/06/21 04:58:52;;;;;;;8.10;7.30;;;;;;;24.19;62.49;101118.22;4972303;28;99634;-83
2023/06/21 05:01:18;;;;;;;8.17;7.30;;;;;;;24.14;62.58;101117.13;4972746;28;97294;-83
2023/06/21 05:03:47;;;;;;;7.73;7.13;;;;;;;24.15;62.72;101124.25;4975051;28;97003;-81
2023/06/21 05:06:13;;;;;;;8.70;7.90;;;;;;;24.16;62.67;101116.56;4986361;28;97009;-82
2023/06/21 05:08:40;;;;;;;6.90;6.30;;;;;;;24.08;62.52;101141.94;4994890;28;97352;-81
2023/06/21 05:11:06;;;;;;;7.57;6.93;;;;;;;24.17;62.64;101124.44;4987972;28;96960;-83
2023/06/21 05:13:32;;;;;;;13.67;7.47;;;;;;;24.18;62.82;101134.34;4975548;28;96835;-82
2023/06/21 05:15:58;;;;;;;12.80;7.07;;;;;;;24.19;62.73;101118.97;4990559;28;97599;-83
2023/06/21 05:18:23;;;;;;;7.73;7.07;;;;;;;24.17;62.66;101109.63;4972092;28;99514;-83
2023/06/21 05:20:48;;;;;;;7.83;7.17;;;;;;;24.19;62.88;101098.53;4993250;28;97021;-80
2023/06/21 05:23:14;;;;;;;7.97;7.20;;;;;;;24.21;62.55;101110.72;4993730;28;97086;-82
2023/06/21 05:25:39;;;;;;;8.03;7.27;;;;;;;24.23;62.61;101112.94;4992301;28;97507;-82
2023/06/21 05:28:04;;;;;;;8.47;7.60;;;;;;;24.22;62.60;101119.91;4970875;28;99465;-81
2023/06/21 05:30:30;;;;;;;8.27;7.47;;;;;;;24.23;62.57;101124.19;4976765;28;97622;-82
2023/06/21 05:32:55;;;;;;;8.20;7.30;;;;;;;24.26;62.71;101128.66;4977429;28;97332;-83
2023/06/21 05:35:20;;;;;;;8.10;7.40;;;;;;;24.29;62.68;101127.50;4992382;28;98844;-83
2023/06/21 05:37:46;;;;;;;6.93;6.30;;;;;;;24.30;62.82;101123.38;4991857;28;98972;-82
2023/06/21 05:40:11;;;;;;;9.83;7.17;;;;;;;24.32;62.60;101127.09;4976633;28;96713;-82
2023/06/21 05:42:37;;;;;;;7.20;6.50;;;;;;;24.30;62.53;101129.75;4974972;28;97248;-82
2023/06/21 05:45:02;;;;;;;6.73;6.20;;;;;;;24.32;62.42;101120.72;4994643;28;97207;-82
2023/06/21 05:47:28;;;;;;;7.03;6.43;;;;;;;24.36;62.41;101132.31;4991280;28;97373;-82
2023/06/21 05:49:53;;;;;;;6.27;5.77;;;;;;;24.35;62.47;101175.81;4976235;28;97569;-83
2023/06/21 05:52:19;;;;;;;7.27;6.57;;;;;;;24.35;62.38;101154.06;4979113;28;97596;-83
2023/06/21 05:54:44;;;;;;;10.80;6.83;;;;;;;24.39;62.53;101154.41;4981243;28;100566;-83
2023/06/21 05:57:11;;;;;;;6.43;5.90;;;;;;;24.48;62.41;101156.56;4989016;28;96782;-82
2023/06/21 05:59:36;;;;;;;6.80;6.20;;;;;;;24.49;62.17;101154.47;4989600;28;97342;-83
2023/06/21 06:02:01;;;;;;;7.60;6.90;;;;;;;24.50;62.22;101173.63;4971269;28;97224;-83
2023/06/21 06:04:27;;;;;;;6.37;5.83;;;;;;;24.51;62.13;101177.16;4988318;28;98088;-83
2023/06/21 06:06:52;;;;;;;6.43;5.83;;;;;;;24.54;62.17;101162.69;4967036;28;100005;-83
2023/06/21 06:09:17;;;;;;;6.70;6.10;;;;;;;24.50;62.14;101165.19;4978621;28;97017;-83
2023/06/21 06:11:43;;;;;;;7.67;5.67;;;;;;;24.53;62.35;101174.50;4991270;28;98040;-83
2023/06/21 06:14:10;;;;;;;6.67;6.07;;;;;;;24.57;62.07;101172.78;4990763;28;100087;-83
2023/06/21 06:16:36;;;;;;;6.23;5.37;;;;;;;24.55;62.28;101183.88;4971105;28;99363;-82
2023/06/21 06:19:02;;;;;;;6.97;6.37;;;;;;;24.62;62.11;101175.94;4990779;28;97597;-83
2023/06/21 06:21:28;;;;;;;6.67;5.97;;;;;;;24.71;62.01;101184.47;4991319;28;96663;-82
2023/06/21 06:23:53;;;;;;;5.97;5.37;;;;;;;24.76;61.85;101186.31;4994962;28;97437;-82
2023/06/21 06:26:22;;;;;;;6.03;5.43;;;;;;;24.80;61.71;101181.00;4978106;28;99362;-82
2023/06/21 06:28:48;;;;;;;5.10;4.70;;;;;;;24.80;61.49;101183.81;4991478;28;97358;-79
2023/06/21 06:31:13;;;;;;;6.10;5.40;;;;;;;24.81;61.50;101202.22;4992686;28;97112;-81
2023/06/21 06:33:39;;;;;;;6.70;5.20;;;;;;;24.88;61.65;101204.19;4990879;28;97961;-83
2023/06/21 06:36:05;;;;;;;5.30;4.80;;;;;;;24.92;61.43;101224.22;4994064;28;97089;-83
2023/06/21 06:38:30;;;;;;;5.63;5.13;;;;;;;24.96;61.50;101198.47;4990599;28;96870;-83
2023/06/21 06:40:55;;;;;;;6.17;5.63;;;;;;;25.01;61.34;101211.56;4981560;28;96862;-82
2023/06/21 06:43:21;;;;;;;5.23;4.80;;;;;;;25.02;61.12;101205.34;4979148;28;99180;-83
2023/06/21 06:45:46;;;;;;;5.23;4.83;;;;;;;25.06;60.99;101202.84;4977059;28;101116;-82
2023/06/21 06:48:11;;;;;;;5.63;5.13;;;;;;;25.07;61.05;101212.81;4987296;28;97510;-80
2023/06/21 06:50:38;;;;;;;5.53;5.13;;;;;;;25.19;60.95;101221.47;4991562;28;97319;-83
2023/06/21 06:53:05;;;;;;;5.20;4.80;;;;;;;25.30;61.14;101220.97;4984935;28;96857;-82
2023/06/21 06:55:30;;;;;;;4.67;4.30;;;;;;;25.38;60.79;101234.97;4989810;28;96861;-84
2023/06/21 06:57:58;;;;;;;5.27;4.87;;;;;;;25.45;60.84;101225.69;4992676;28;97507;-82
2023/06/21 07:00:25;;;;;;;5.73;5.23;;;;;;;25.48;60.72;101235.78;4964427;28;97029;-83
2023/06/21 07:02:56;;;;;;;6.13;5.57;;;;;;;25.44;60.70;101258.00;4975505;28;98801;-83
2023/06/21 07:05:21;;;;;;;6.50;4.60;;;;;;;25.44;60.64;101261.59;4986359;28;97390;-82
2023/06/21 07:07:47;;;;;;;5.63;5.13;;;;;;;25.43;60.54;101260.09;4974337;28;97327;-84
2023/06/21 07:10:12;;;;;;;5.87;5.27;;;;;;;25.43;60.64;101245.25;4975014;28;97765;-81
2023/06/21 07:12:39;;;;;;;5.40;5.00;;;;;;;25.46;60.46;101249.72;4988984;28;98166;-83
2023/06/21 07:15:04;;;;;;;5.77;5.27;;;;;;;25.43;60.15;101245.25;4985893;28;96850;-82
2023/06/21 07:17:30;;;;;;;6.33;5.83;;;;;;;25.37;60.23;101233.47;4988866;28;97232;-83
2023/06/21 07:19:55;;;;;;;6.30;5.80;;;;;;;25.43;60.41;101228.34;4972166;28;97374;-82
2023/06/21 07:22:20;;;;;;;5.73;5.23;;;;;;;25.50;60.32;101235.94;4990295;28;97942;-82
2023/06/21 07:24:46;;;;;;;6.20;5.70;;;;;;;25.53;59.84;101255.28;4991065;28;97268;-82
2023/06/21 07:27:12;;;;;;;6.30;5.80;;;;;;;25.54;59.65;101222.19;4990294;28;97113;-82
2023/06/21 07:29:37;;;;;;;6.43;5.93;;;;;;;25.56;59.39;101240.00;4985116;28;96939;-83
2023/06/21 07:32:03;;;;;;;6.50;6.00;;;;;;;25.60;59.38;101248.78;4971195;28;100889;-80
2023/06/21 07:34:29;;;;;;;6.53;5.93;;;;;;;25.69;59.17;101244.50;4986582;28;98423;-80
2023/06/21 07:36:55;;;;;;;6.03;5.60;;;;;;;25.74;59.26;101260.44;4990845;28;97446;-82
2023/06/21 07:39:20;;;;;;;6.13;5.63;;;;;;;25.82;59.02;101261.81;4986493;28;97684;-83
2023/06/21 07:41:45;;;;;;;5.47;5.07;;;;;;;25.90;58.95;101268.09;4990470;28;97723;-83
2023/06/21 07:44:11;;;;;;;8.87;5.20;;;;;;;25.91;58.66;101257.56;4972604;28;99291;-83
2023/06/21 07:46:36;;;;;;;5.03;4.63;;;;;;;25.97;58.92;101253.13;4986013;28;97617;-81
2023/06/21 07:49:02;;;;;;;5.53;5.03;;;;;;;26.10;58.68;101268.97;4993351;28;96915;-83
2023/06/21 07:51:27;;;;;;;5.67;5.20;;;;;;;26.15;58.54;101273.56;4987561;28;98988;-82
2023/06/21 07:53:53;;;;;;;5.93;5.50;;;;;;;26.22;58.40;101264.25;4989793;28;98276;-84
2023/06/21 07:56:18;;;;;;;6.10;5.60;;;;;;;26.18;58.04;101292.16;4974637;28;97278;-82
2023/06/21 07:58:44;;;;;;;6.87;6.27;;;;;;;26.25;58.25;101276.44;4976433;28;97415;-82
2023/06/21 08:01:09;;;;;;;6.40;5.90;;;;;;;26.24;57.84;101278.50;4992324;28;96957;-83
2023/06/21 08:03:35;;;;;;;6.60;5.70;;;;;;;26.15;57.93;101279.22;4993228;28;97303;-82
2023/06/21 08:06:00;;;;;;;5.80;5.30;;;;;;;26.12;57.72;101279.66;4961625;28;96802;-83
2023/06/21 08:08:26;;;;;;;6.40;5.80;;;;;;;26.21;57.44;101287.41;4992326;28;97468;-82
2023/06/21 08:10:52;;;;;;;5.03;4.63;;;;;;;26.24;57.12;101291.88;4975723;28;99215;-83
2023/06/21 08:13:22;;;;;;;5.40;4.90;;;;;;;26.19;57.05;101282.34;4992030;28;98810;-83
2023/06/21 08:15:48;;;;;;;7.07;6.47;;;;;;;26.23;56.98;101282.69;4993755;28;97375;-83
2023/06/21 08:18:13;;;;;;;5.77;5.37;;;;;;;26.28;56.92;101283.72;4992041;28;96883;-84
2023/06/21 08:20:40;;;;;;;5.37;4.97;;;;;;;26.30;56.77;101281.09;4976125;28;100375;-83
2023/06/21 08:23:06;;;;;;;4.90;4.53;;;;;;;26.32;56.80;101293.25;4969089;28;99575;-84
2023/06/21 08:25:31;;;;;;;5.10;4.60;;;;;;;26.36;56.74;101278.72;4990463;28;97869;-83
2023/06/21 08:27:57;;;;;;;5.23;4.83;;;;;;;26.44;56.29;101288.53;4975921;28;100842;-82
2023/06/21 08:30:22;;;;;;;5.03;4.60;;;;;;;26.48;56.18;101283.22;4989317;28;98590;-83
2023/06/21 08:32:47;;;;;;;4.50;4.20;;;;;;;26.57;55.89;101284.56;4997205;28;96850;-84
2023/06/21 08:35:13;;;;;;;4.90;4.50;;;;;;;26.57;55.50;101284.56;4974148;28;97607;-82
2023/06/21 08:37:39;;;;;;;6.40;5.30;;;;;;;26.66;55.26;101281.78;4996925;28;97043;-82
2023/06/21 08:40:07;;;;;;;4.40;4.10;;;;;;;26.67;55.13;101288.91;4967888;28;101339;-84
2023/06/21 08:42:32;;;;;;;4.57;4.20;;;;;;;26.74;55.14;101285.22;4988780;28;97796;-84
2023/06/21 08:44:58;;;;;;;5.33;3.93;;;;;;;26.81;55.06;101302.63;4978507;28;97425;-83
2023/06/21 08:47:28;;;;;;;4.40;4.07;;;;;;;26.85;55.04;101291.63;4975722;28;97161;-83
2023/06/21 08:49:57;;;;;;;4.33;4.00;;;;;;;26.86;54.36;101295.97;4990171;28;97844;-83
2023/06/21 08:52:24;;;;;;;4.40;4.00;;;;;;;26.89;54.23;101286.31;4992795;28;97379;-82
2023/06/21 08:54:56;;;;;;;4.87;4.23;;;;;;;27.01;54.17;101309.81;4992855;28;96986;-79
2023/06/21 08:57:23;;;;;;;4.13;3.83;;;;;;;27.15;54.04;101325.00;4992506;28;97157;-83
2023/06/21 09:00:01;;;;;;;4.00;3.70;;;;;;;27.28;53.16;101307.59;4988496;28;98003;-82
2023/06/21 09:02:44;;;;;;;4.40;4.00;;;;;;;27.36;52.84;101313.88;4989089;28;99311;-84
2023/06/21 09:05:22;;;;;;;9.60;3.20;;;;;;;27.40;52.67;101300.78;4991851;28;97180;-84
2023/06/21 09:07:48;;;;;;;3.47;3.27;;;;;;;27.45;53.26;101313.88;4994037;28;97171;-83
2023/06/21 09:10:16;;;;;;;4.77;4.27;;;;;;;27.61;53.01;101322.03;4991130;28;97143;-83
2023/06/21 09:12:44;;;;;;;3.80;3.47;;;;;;;27.66;52.48;101324.56;4976278;28;99863;-82
2023/06/21 09:15:11;;;;;;;4.17;3.87;;;;;;;27.68;52.64;101319.03;4977912;28;98505;-83
2023/06/21 09:17:37;;;;;;;3.60;3.40;;;;;;;27.70;52.08;101319.19;4986963;28;97012;-83
2023/06/21 09:20:02;;;;;;;4.23;3.87;;;;;;;27.73;51.73;101311.59;4990995;28;99268;-82
2023/06/21 09:22:30;;;;;;;3.50;3.30;;;;;;;27.77;51.87;101315.47;4992855;28;99066;-82
2023/06/21 09:24:56;;;;;;;3.97;3.67;;;;;;;27.87;51.56;101319.00;4986468;28;97291;-82
2023/06/21 09:27:22;;;;;;;4.30;4.00;;;;;;;27.87;51.19;101319.00;4982433;28;96929;-80
2023/06/21 09:29:48;;;;;;;3.63;3.43;;;;;;;27.89;51.17;101330.47;4995097;28;98732;-81
2023/06/21 09:32:13;;;;;;;3.37;3.17;;;;;;;28.00;51.07;101329.16;4995296;28;97367;-83
2023/06/21 09:34:38;;;;;;;3.90;3.63;;;;;;;28.12;50.96;101325.09;4992809;28;96859;-84
2023/06/21 09:37:04;;;;;;;3.70;3.43;;;;;;;28.24;50.47;101330.84;4993019;28;96918;-83
2023/06/21 09:39:29;;;;;;;3.43;3.03;;;;;;;28.32;50.30;101344.81;4968669;28;100455;-83
2023/06/21 09:41:56;;;;;;;3.37;3.17;;;;;;;28.46;49.97;101357.16;4964111;28;102131;-83
2023/06/21 09:44:21;;;;;;;3.17;2.97;;;;;;;28.59;49.68;101328.34;4978812;28;96950;-80
2023/06/21 09:46:58;;;;;;;3.50;3.20;;;;;;;28.71;48.22;101329.91;4973547;28;98455;-83
2023/06/21 09:49:27;;;;;;;3.83;3.43;;;;;;;28.80;49.37;101331.97;4994190;28;97814;-83
2023/06/21 09:51:53;;;;;;;3.10;2.90;;;;;;;28.83;48.60;101339.22;4997031;28;97620;-83
2023/06/21 09:54:18;;;;;;;2.90;2.70;;;;;;;28.88;48.90;101338.16;4991919;28;97146;-83
2023/06/21 09:56:44;;;;;;;3.80;3.50;;;;;;;28.94;48.48;101341.41;4992709;28;97151;-83
2023/06/21 09:59:19;;;;;;;4.23;3.17;;;;;;;29.01;47.54;101339.00;5000423;28;98732;-86
2023/06/21 10:01:46;;;;;;;3.30;3.10;;;;;;;29.12;48.35;101327.69;4993898;28;97441;-83
2023/06/21 10:04:13;;;;;;;3.57;3.37;;;;;;;29.07;47.99;101328.81;4993544;28;96820;-84
2023/06/21 10:06:47;;;;;;;3.20;3.00;;;;;;;29.09;47.23;101331.78;4980946;28;97028;-84
2023/06/21 10:09:12;;;;;;;3.67;2.87;;;;;;;29.09;47.71;101348.03;4990326;28;96923;-84
2023/06/21 10:11:38;;;;;;;4.87;3.60;;;;;;;29.21;47.70;101329.00;4994263;28;97210;-83
2023/06/21 10:14:04;;;;;;;3.00;2.80;;;;;;;29.37;47.70;101341.44;4977968;28;96705;-83
2023/06/21 10:16:30;;;;;;;4.20;3.50;;;;;;;29.43;47.53;101328.38;4978667;28;96899;-84
2023/06/21 10:18:58;;;;;;;3.60;3.40;;;;;;;29.52;47.26;101341.75;4996487;28;97345;-83
2023/06/21 10:21:26;;;;;;;3.30;3.10;;;;;;;29.54;47.54;101338.28;4992869;28;97655;-79
2023/06/21 10:23:52;;;;;;;3.27;2.97;;;;;;;29.54;47.04;101350.38;4978540;28;97624;-82
2023/06/21 10:26:19;;;;;;;3.57;3.30;;;;;;;29.49;46.83;101357.13;4977438;28;96855;-83
2023/06/21 10:28:48;;;;;;;3.40;3.10;;;;;;;29.56;46.09;101342.00;4976269;28;99580;-82
2023/06/21 10:31:13;;;;;;;3.30;3.10;;;;;;;29.58;46.37;101352.72;4991090;28;96780;-83
2023/06/21 10:33:39;;;;;;;5.43;3.13;;;;;;;29.52;46.04;101346.66;4978149;28;97169;-82
2023/06/21 10:36:10;;;;;;;3.20;3.00;;;;;;;29.51;44.87;101365.78;4976192;28;96913;-83
2023/06/21 10:38:46;;;;;;;2.93;2.70;;;;;;;29.64;44.40;101359.53;4974481;28;99591;-83
2023/06/21 10:41:14;;;;;;;3.30;3.00;;;;;;;29.70;44.63;101345.03;4993283;28;97162;-82
2023/06/21 10:43:40;;;;;;;2.60;2.40;;;;;;;29.70;44.58;101355.63;4995972;28;96640;-83
2023/06/21 10:46:08;;;;;;;2.70;2.50;;;;;;;29.77;43.92;101343.34;4985013;28;97395;-83
2023/06/21 10:48:35;;;;;;;3.03;2.80;;;;;;;29.96;43.98;101354.50;4973371;28;99274;-83
2023/06/21 10:51:02;;;;;;;3.20;2.90;;;;;;;30.06;43.78;101360.78;4990837;28;97649;-82
2023/06/21 10:53:34;;;;;;;3.23;2.93;;;;;;;30.06;42.72;101358.72;4977326;28;97144;-80
2023/06/21 10:56:01;;;;;;;2.60;2.50;;;;;;;30.07;43.17;101380.06;4981155;28;97078;-82
2023/06/21 10:58:27;;;;;;;2.87;2.70;;;;;;;30.19;43.02;101357.38;4971896;28;99396;-81
2023/06/21 11:00:55;;;;;;;3.10;2.90;;;;;;;30.25;43.02;101347.13;4974902;28;99259;-85
2023/06/21 11:03:25;;;;;;;4.93;3.20;;;;;;;30.25;43.00;101369.13;4979382;28;97583;-83
2023/06/21 11:05:55;;;;;;;2.93;2.73;;;;;;;30.33;42.32;101367.56;4987069;28;97295;-83
2023/06/21 11:08:36;;;;;;;3.20;3.00;;;;;;;30.35;41.38;101362.00;4992827;28;97433;-83
2023/06/21 11:11:02;;;;;;;3.20;3.00;;;;;;;30.48;41.87;101357.03;4992818;28;98339;-82
2023/06/21 11:13:35;;;;;;;3.40;3.20;;;;;;;30.54;41.36;101363.84;4967421;28;97213;-81
2023/06/21 11:16:15;;;;;;;3.10;2.90;;;;;;;30.60;40.67;101369.88;4991162;28;97928;-82
2023/06/21 11:18:47;;;;;;;3.43;3.23;;;;;;;30.59;41.18;101370.50;4963901;28;100145;-82
2023/06/21 11:21:13;;;;;;;2.83;2.63;;;;;;;30.55;41.52;101373.84;4988118;28;97870;-81
2023/06/21 11:23:51;;;;;;;3.53;3.33;;;;;;;30.61;40.59;101376.31;4989089;28;97864;-80